createdAt,value
2019-04-27T00:04:32.879Z,68.10
2019-04-27T00:07:04.994Z,66.60
2019-04-27T00:09:37.114Z,66.40
2019-04-27T00:12:09.180Z,67.10
2019-04-27T00:14:40.249Z,66.80
2019-04-27T00:17:12.907Z,66.10
2019-04-27T00:19:45.211Z,66.20
2019-04-27T00:22:17.330Z,66.20
2019-04-27T00:24:48.009Z,65.90
2019-04-27T00:27:19.166Z,65.50
2019-04-27T00:29:49.862Z,65.40
2019-04-27T00:32:20.769Z,65.80
2019-04-27T00:34:53.156Z,64.80
2019-04-27T00:37:25.204Z,64.40
2019-04-27T00:39:57.184Z,63.90
2019-04-27T00:42:27.916Z,63.50
2019-04-27T00:44:58.632Z,63.30
2019-04-27T00:47:29.314Z,62.80
2019-04-27T00:50:00.462Z,62.40
2019-04-27T00:52:32.607Z,62.10
2019-04-27T00:55:03.250Z,61.80
2019-04-27T00:57:35.458Z,61.50
2019-04-27T01:00:08.931Z,61.50
2019-04-27T01:02:41.123Z,61.30
2019-04-27T01:05:13.356Z,61.00
2019-04-27T01:07:44.264Z,60.60
2019-04-27T01:10:15.131Z,60.30
2019-04-27T01:12:46.141Z,60.00
2019-04-27T01:15:17.048Z,59.80
2019-04-27T01:17:49.032Z,59.50
2019-04-27T01:20:19.926Z,59.30
2019-04-27T01:22:50.625Z,59.10
2019-04-27T01:25:22.692Z,58.90
2019-04-27T01:27:54.795Z,58.70
2019-04-27T01:30:27.020Z,58.60
2019-04-27T01:33:00.510Z,58.20
2019-04-27T01:35:31.311Z,58.00
2019-04-27T01:38:02.212Z,57.80
2019-04-27T01:40:32.975Z,57.70
2019-04-27T01:43:03.847Z,57.60
2019-04-27T01:45:34.589Z,57.30
2019-04-27T01:48:05.421Z,57.20
2019-04-27T01:50:36.599Z,57.20
2019-04-27T01:53:08.855Z,57.30
2019-04-27T01:55:40.770Z,57.30
2019-04-27T01:58:11.694Z,57.20
2019-04-27T02:00:45.524Z,57.10
2019-04-27T02:03:17.509Z,56.90
2019-04-27T02:05:49.663Z,56.70
2019-04-27T02:08:20.447Z,56.60
2019-04-27T02:10:59.358Z,56.50
2019-04-27T02:13:29.142Z,56.40
2019-04-27T02:15:59.994Z,56.20
2019-04-27T02:18:37.555Z,56.10
2019-04-27T02:21:03.212Z,56.00
2019-04-27T02:23:33.820Z,56.20
2019-04-27T02:26:05.219Z,55.90
2019-04-27T02:29:08.782Z,55.60
2019-04-27T02:31:40.897Z,55.40
2019-04-27T02:34:13.189Z,54.90
2019-04-27T02:36:44.882Z,55.10
2019-04-27T02:39:15.548Z,55.00
2019-04-27T02:41:46.522Z,55.10
2019-04-27T02:44:19.954Z,55.20
2019-04-27T02:46:50.835Z,55.00
2019-04-27T02:49:22.023Z,54.80
2019-04-27T02:51:54.132Z,54.60
2019-04-27T02:54:24.940Z,54.50
2019-04-27T02:56:55.726Z,54.10
2019-04-27T02:59:26.684Z,54.20
2019-04-27T03:02:00.799Z,54.20
2019-04-27T03:04:30.899Z,53.60
2019-04-27T03:07:01.824Z,53.60
2019-04-27T03:09:32.747Z,53.80
2019-04-27T03:12:25.425Z,53.70
2019-04-27T03:14:59.420Z,53.50
2019-04-27T03:17:31.265Z,53.50
2019-04-27T03:23:12.188Z,53.40
2019-04-27T03:25:44.153Z,53.10
2019-04-27T03:28:15.703Z,53.30
2019-04-27T03:30:46.775Z,52.90
2019-04-27T03:33:21.656Z,52.80
2019-04-27T03:35:52.519Z,52.50
2019-04-27T03:41:12.401Z,52.30
2019-04-27T03:43:43.269Z,52.20
2019-04-27T03:46:14.240Z,52.10
2019-04-27T03:48:45.045Z,52.40
2019-04-27T03:51:21.428Z,52.30
2019-04-27T03:53:55.437Z,52.10
2019-04-27T03:56:26.646Z,52.10
2019-04-27T03:58:59.759Z,52.10
2019-04-27T04:01:30.834Z,51.60
2019-04-27T04:04:01.867Z,51.30
2019-04-27T04:06:32.866Z,51.50
2019-04-27T04:09:06.214Z,51.30
2019-04-27T04:11:39.531Z,51.30
2019-04-27T04:14:11.848Z,51.20
2019-04-27T04:16:43.879Z,50.60
2019-04-27T04:19:15.947Z,50.10
2019-04-27T04:25:10.369Z,50.00
2019-04-27T04:27:42.496Z,49.10
2019-04-27T04:33:25.650Z,48.80
2019-04-27T04:35:59.640Z,47.50
2019-04-27T04:38:30.516Z,48.20
2019-04-27T04:41:02.828Z,48.60
2019-04-27T04:43:35.049Z,48.10
2019-04-27T04:46:09.790Z,48.20
2019-04-27T04:48:40.223Z,47.80
2019-04-27T04:51:10.276Z,48.00
2019-04-27T04:53:41.422Z,47.00
2019-04-27T04:56:12.642Z,46.50
2019-04-27T04:59:20.560Z,46.50
2019-04-27T05:01:54.168Z,46.80
2019-04-27T05:04:25.041Z,46.10
2019-04-27T05:06:55.951Z,45.70
2019-04-27T05:09:30.716Z,44.70
2019-04-27T05:12:01.742Z,43.90
2019-04-27T05:14:32.477Z,44.40
2019-04-27T05:17:03.447Z,45.20
2019-04-27T05:19:34.537Z,45.50
2019-04-27T05:22:09.211Z,45.50
2019-04-27T05:24:41.862Z,45.30
2019-04-27T05:27:35.773Z,44.90
2019-04-27T05:30:30.408Z,45.10
2019-04-27T05:33:18.825Z,44.40
2019-04-27T05:35:49.847Z,44.40
2019-04-27T05:38:25.164Z,44.70
2019-04-27T05:40:56.151Z,45.40
2019-04-27T05:43:30.179Z,43.10
2019-04-27T05:46:04.210Z,43.10
2019-04-27T05:48:36.166Z,42.00
2019-04-27T05:51:07.050Z,42.10
2019-04-27T05:53:39.451Z,41.60
2019-04-27T05:56:10.650Z,41.60
2019-04-27T05:58:42.078Z,41.60
2019-04-27T06:01:13.150Z,41.60
2019-04-27T06:03:43.980Z,42.10
2019-04-27T06:06:14.878Z,43.20
2019-04-27T06:08:45.775Z,43.40
2019-04-27T06:11:16.914Z,43.30
2019-04-27T06:13:49.264Z,42.80
2019-04-27T06:16:20.240Z,42.30
2019-04-27T06:18:51.202Z,42.00
2019-04-27T06:21:22.769Z,42.10
2019-04-27T06:23:53.903Z,43.30
2019-04-27T06:26:24.600Z,43.30
2019-04-27T06:28:55.457Z,43.30
2019-04-27T06:31:26.243Z,42.70
2019-04-27T06:33:56.975Z,42.50
2019-04-27T06:36:30.364Z,42.80
2019-04-27T06:39:01.259Z,40.80
2019-04-27T06:41:32.799Z,40.50
2019-04-27T06:44:04.335Z,41.80
2019-04-27T06:46:35.285Z,41.50
2019-04-27T06:49:06.054Z,41.60
2019-04-27T06:51:36.798Z,41.50
2019-04-27T06:54:09.147Z,40.60
2019-04-27T06:56:39.729Z,40.50
2019-04-27T06:59:10.508Z,40.80
2019-04-27T07:01:41.475Z,40.90
2019-04-27T07:04:12.419Z,41.20
2019-04-27T07:06:53.226Z,40.90
2019-04-27T07:09:20.010Z,40.50
2019-04-27T07:11:50.952Z,40.70
2019-04-27T07:14:22.166Z,40.60
2019-04-27T07:16:53.055Z,40.60
2019-04-27T07:19:24.412Z,40.80
2019-04-27T07:21:55.372Z,41.10
2019-04-27T07:24:26.265Z,41.10
2019-04-27T07:26:57.191Z,41.20
2019-04-27T07:29:29.224Z,40.10
2019-04-27T07:32:00.497Z,40.40
2019-04-27T07:34:31.293Z,40.90
2019-04-27T07:37:02.083Z,40.60
2019-04-27T07:39:33.204Z,40.40
2019-04-27T07:42:03.897Z,40.20
2019-04-27T07:44:38.962Z,39.90
2019-04-27T07:47:11.547Z,40.30
2019-04-27T07:49:43.883Z,40.50
2019-04-27T07:52:15.811Z,41.00
2019-04-27T07:54:49.076Z,40.70
2019-04-27T07:57:19.832Z,41.10
2019-04-27T07:59:50.744Z,41.10
2019-04-27T08:02:21.791Z,40.70
2019-04-27T08:04:52.653Z,40.50
2019-04-27T08:07:23.633Z,40.60
2019-04-27T08:09:54.656Z,40.40
2019-04-27T08:12:25.585Z,40.50
2019-04-27T08:14:56.649Z,39.30
2019-04-27T08:17:28.276Z,39.70
2019-04-27T08:20:00.720Z,39.80
2019-04-27T08:22:31.720Z,40.20
2019-04-27T08:25:02.690Z,40.00
2019-04-27T08:27:35.077Z,39.80
2019-04-27T08:30:09.804Z,39.00
2019-04-27T08:32:41.885Z,39.70
2019-04-27T08:35:13.029Z,39.70
2019-04-27T08:37:43.780Z,40.30
2019-04-27T08:40:15.978Z,39.90
2019-04-27T08:42:46.914Z,40.00
2019-04-27T08:45:19.187Z,39.90
2019-04-27T08:47:50.238Z,41.10
2019-04-27T08:50:21.248Z,40.30
2019-04-27T08:52:52.179Z,40.30
2019-04-27T08:55:23.571Z,40.60
2019-04-27T08:57:54.405Z,41.20
2019-04-27T09:00:25.593Z,43.40
2019-04-27T09:02:59.492Z,43.90
2019-04-27T09:05:30.438Z,45.50
2019-04-27T09:08:01.290Z,46.00
2019-04-27T09:10:33.538Z,45.40
2019-04-27T09:13:05.717Z,45.70
2019-04-27T09:15:39.177Z,48.00
2019-04-27T09:18:10.817Z,49.30
2019-04-27T09:20:44.134Z,49.30
2019-04-27T09:23:15.634Z,52.80
2019-04-27T09:25:47.042Z,52.40
2019-04-27T09:28:17.929Z,52.20
2019-04-27T09:30:49.789Z,53.80
2019-04-27T09:33:22.243Z,54.50
2019-04-27T09:35:53.405Z,55.10
2019-04-27T09:38:26.264Z,55.40
2019-04-27T09:40:58.073Z,56.00
2019-04-27T09:43:28.843Z,55.80
2019-04-27T09:45:59.870Z,55.50
2019-04-27T09:48:30.663Z,55.10
2019-04-27T09:51:01.804Z,54.70
2019-04-27T09:53:32.558Z,54.00
2019-04-27T09:56:03.446Z,55.90
2019-04-27T09:58:39.015Z,57.00
2019-04-27T10:01:10.025Z,58.80
2019-04-27T10:03:40.952Z,57.20
2019-04-27T10:06:11.797Z,56.60
2019-04-27T10:08:44.722Z,57.10
2019-04-27T10:11:16.245Z,56.50
2019-04-27T10:13:47.850Z,56.30
2019-04-27T10:16:18.636Z,57.30
2019-04-27T10:18:49.450Z,57.20
2019-04-27T10:21:20.442Z,57.40
2019-04-27T10:23:51.391Z,57.70
2019-04-27T10:26:22.142Z,58.30
2019-04-27T10:28:53.136Z,58.70
2019-04-27T10:31:23.944Z,58.00
2019-04-27T10:33:55.971Z,57.70
2019-04-27T10:36:28.334Z,58.00
2019-04-27T10:38:59.241Z,57.60
2019-04-27T10:41:30.016Z,57.40
2019-04-27T10:44:01.347Z,57.20
2019-04-27T10:46:32.108Z,57.00
2019-04-27T10:49:03.340Z,56.80
2019-04-27T10:51:34.141Z,56.70
2019-04-27T10:54:06.655Z,56.50
2019-04-27T10:56:37.995Z,56.80
2019-04-27T10:59:09.774Z,57.70
2019-04-27T11:01:40.729Z,57.90
2019-04-27T11:04:12.850Z,57.30
2019-04-27T11:06:45.087Z,57.20
2019-04-27T11:09:16.402Z,57.40
2019-04-27T11:11:47.307Z,58.10
2019-04-27T11:14:18.263Z,58.50
2019-04-27T11:16:49.073Z,57.80
2019-04-27T11:19:19.947Z,57.30
2019-04-27T11:21:50.721Z,56.70
2019-04-27T11:24:21.701Z,56.20
2019-04-27T11:26:52.626Z,55.70
2019-04-27T11:29:23.378Z,55.90
2019-04-27T11:31:55.515Z,54.80
2019-04-27T11:34:27.803Z,54.60
2019-04-27T11:36:59.893Z,54.20
2019-04-27T11:39:30.778Z,54.00
2019-04-27T11:42:01.706Z,53.60
2019-04-27T11:44:32.732Z,53.60
2019-04-27T11:47:03.610Z,53.60
2019-04-27T11:49:35.947Z,53.50
2019-04-27T11:52:06.905Z,53.70
2019-04-27T11:54:37.753Z,53.80
2019-04-27T11:57:08.574Z,53.70
2019-04-27T11:59:39.520Z,53.60
2019-04-27T12:02:10.283Z,54.40
2019-04-27T12:04:41.188Z,53.20
2019-04-27T12:07:11.973Z,53.10
2019-04-27T12:09:42.921Z,53.10
2019-04-27T12:12:19.451Z,53.00
2019-04-27T12:14:47.542Z,53.00
2019-04-27T12:17:18.533Z,52.90
2019-04-27T12:19:49.373Z,53.30
2019-04-27T12:22:20.776Z,53.00
2019-04-27T12:24:51.611Z,53.00
2019-04-27T12:27:23.794Z,52.90
2019-04-27T12:29:56.013Z,52.60
2019-04-27T12:32:27.836Z,52.50
2019-04-27T12:34:58.788Z,52.50
2019-04-27T12:37:29.805Z,52.40
2019-04-27T12:40:00.590Z,52.20
2019-04-27T12:42:31.591Z,52.20
2019-04-27T12:45:02.421Z,52.30
2019-04-27T12:47:33.309Z,52.30
2019-04-27T12:50:06.073Z,52.30
2019-04-27T12:52:36.755Z,52.20
2019-04-27T12:55:10.481Z,51.90
2019-04-27T12:57:45.089Z,52.10
2019-04-27T13:00:17.339Z,52.20
2019-04-27T13:02:48.191Z,52.20
2019-04-27T13:05:19.068Z,52.30
2019-04-27T13:07:49.763Z,52.40
2019-04-27T13:10:20.891Z,52.40
2019-04-27T13:12:51.729Z,52.40
2019-04-27T13:15:22.817Z,52.50
2019-04-27T13:17:55.580Z,52.60
2019-04-27T13:20:26.180Z,52.60
2019-04-27T13:22:57.137Z,52.50
2019-04-27T13:25:28.166Z,52.60
2019-04-27T13:27:59.002Z,52.60
2019-04-27T13:30:32.680Z,52.50
2019-04-27T13:33:03.452Z,52.30
2019-04-27T13:35:34.427Z,52.30
2019-04-27T13:38:06.588Z,52.30
2019-04-27T13:40:38.735Z,52.40
2019-04-27T13:43:10.719Z,52.50
2019-04-27T13:45:42.995Z,52.50
2019-04-27T13:48:15.080Z,53.00
2019-04-27T13:50:47.223Z,52.90
2019-04-27T13:53:18.202Z,52.90
2019-04-27T13:55:49.056Z,52.90
2019-04-27T13:58:20.028Z,52.80
2019-04-27T14:00:50.631Z,52.70
2019-04-27T14:03:21.633Z,52.60
2019-04-27T14:05:52.660Z,52.60
2019-04-27T14:08:24.796Z,52.60
2019-04-27T14:10:55.746Z,52.60
2019-04-27T14:13:28.387Z,52.50
2019-04-27T14:15:59.261Z,52.60
2019-04-27T14:18:30.213Z,52.50
2019-04-27T14:21:01.291Z,52.50
2019-04-27T14:23:33.318Z,52.40
2019-04-27T14:26:04.431Z,52.50
2019-04-27T14:28:35.156Z,52.40
2019-04-27T14:31:05.969Z,52.50
2019-04-27T14:33:39.548Z,52.40
2019-04-27T14:36:09.213Z,52.40
2019-04-27T14:38:40.151Z,52.40
2019-04-27T14:41:11.308Z,52.60
2019-04-27T14:43:42.100Z,52.70
2019-04-27T14:46:13.169Z,53.00
2019-04-27T14:48:43.932Z,53.00
2019-04-27T14:51:14.976Z,53.10
2019-04-27T14:53:45.925Z,53.60
2019-04-27T14:56:18.487Z,53.20
2019-04-27T14:58:49.505Z,53.10
2019-04-27T15:01:20.642Z,53.00
2019-04-27T15:03:51.634Z,53.00
2019-04-27T15:06:22.604Z,53.00
2019-04-27T15:08:53.390Z,53.80
2019-04-27T15:11:24.465Z,53.50
2019-04-27T15:13:59.276Z,53.40
2019-04-27T15:16:27.480Z,53.50
2019-04-27T15:18:59.993Z,53.40
2019-04-27T15:21:32.630Z,53.60
2019-04-27T15:24:09.322Z,53.60
2019-04-27T15:26:36.169Z,54.00
2019-04-27T15:29:08.288Z,54.10
2019-04-27T15:31:40.875Z,54.10
2019-04-27T15:34:11.678Z,54.10
2019-04-27T15:36:43.796Z,53.90
2019-04-27T15:39:16.025Z,54.10
2019-04-27T15:41:48.442Z,54.10
2019-04-27T15:44:19.121Z,54.50
2019-04-27T15:46:49.919Z,54.60
2019-04-27T15:49:20.766Z,54.90
2019-04-27T15:51:54.840Z,54.90
2019-04-27T15:54:28.707Z,55.50
2019-04-27T15:56:57.689Z,55.60
2019-04-27T15:59:30.989Z,56.00
2019-04-27T16:02:05.603Z,56.00
2019-04-27T16:04:34.645Z,55.80
2019-04-27T16:07:05.781Z,55.90
2019-04-27T16:09:38.619Z,55.80
2019-04-27T16:12:12.558Z,55.70
2019-04-27T16:14:44.117Z,55.50
2019-04-27T16:17:13.700Z,55.70
2019-04-27T16:19:48.942Z,55.70
2019-04-27T16:22:18.303Z,56.60
2019-04-27T16:24:49.447Z,56.10
2019-04-27T16:27:21.050Z,55.70
2019-04-27T16:29:52.071Z,55.50
2019-04-27T16:32:23.035Z,55.90
2019-04-27T16:34:54.080Z,55.70
2019-04-27T16:37:28.392Z,55.40
2019-04-27T16:39:58.929Z,55.30
2019-04-27T16:42:30.736Z,55.40
2019-04-27T16:45:01.516Z,55.00
2019-04-27T16:47:32.411Z,54.80
2019-04-27T16:50:03.325Z,54.70
2019-04-27T16:52:34.281Z,54.60
2019-04-27T16:55:05.627Z,54.50
2019-04-27T16:57:37.254Z,54.50
2019-04-27T17:00:11.046Z,54.60
2019-04-27T17:02:42.138Z,54.60
2019-04-27T17:05:15.525Z,54.50
2019-04-27T17:07:46.140Z,54.60
2019-04-27T17:10:25.495Z,54.60
2019-04-27T17:12:51.206Z,54.60
2019-04-27T17:15:22.946Z,54.60
2019-04-27T17:17:54.828Z,54.60
2019-04-27T17:20:25.698Z,54.80
2019-04-27T17:22:58.048Z,54.90
2019-04-27T17:25:30.496Z,54.90
2019-04-27T17:28:04.078Z,54.90
2019-04-27T17:30:37.949Z,54.80
2019-04-27T17:33:11.973Z,55.00
2019-04-27T17:35:42.713Z,54.90
2019-04-27T17:38:13.487Z,54.90
2019-04-27T17:40:44.748Z,54.70
2019-04-27T17:43:15.590Z,54.70
2019-04-27T17:45:48.462Z,54.70
2019-04-27T17:48:19.197Z,54.90
2019-04-27T17:50:55.896Z,55.10
2019-04-27T17:53:29.154Z,54.90
2019-04-27T17:56:02.674Z,54.70
2019-04-27T17:58:29.902Z,54.70
2019-04-27T18:01:00.911Z,54.80
2019-04-27T18:03:31.805Z,54.80
2019-04-27T18:06:02.654Z,54.80
2019-04-27T18:08:33.768Z,54.50
2019-04-27T18:11:04.771Z,54.70
2019-04-27T18:13:42.041Z,54.90
2019-04-27T18:16:11.918Z,54.80
2019-04-27T18:18:42.431Z,54.70
2019-04-27T18:21:19.490Z,54.80
2019-04-27T18:23:55.106Z,55.20
2019-04-27T18:26:23.687Z,55.50
2019-04-27T18:28:57.949Z,55.60
2019-04-27T18:31:28.922Z,55.50
2019-04-27T18:34:00.742Z,56.00
2019-04-27T18:36:31.675Z,55.90
2019-04-27T18:39:05.535Z,55.90
2019-04-27T18:41:34.845Z,56.20
2019-04-27T18:44:06.156Z,56.20
2019-04-27T18:46:38.404Z,56.50
2019-04-27T18:49:13.563Z,56.80
2019-04-27T18:51:45.564Z,56.70
2019-04-27T18:54:18.286Z,56.80
2019-04-27T18:57:01.460Z,56.90
2019-04-27T18:59:20.868Z,56.90
2019-04-27T19:01:51.925Z,57.20
2019-04-27T19:04:22.808Z,57.40
2019-04-27T19:06:53.726Z,57.50
2019-04-27T19:09:24.545Z,57.50
2019-04-27T19:11:56.695Z,57.30
2019-04-27T19:14:28.275Z,57.40
2019-04-27T19:16:59.294Z,57.60
2019-04-27T19:19:30.188Z,57.80
2019-04-27T19:22:00.775Z,57.90
2019-04-27T19:24:31.704Z,57.90
2019-04-27T19:27:15.275Z,57.90
2019-04-27T19:29:38.171Z,58.40
2019-04-27T19:32:09.328Z,58.30
2019-04-27T19:34:40.214Z,58.40
2019-04-27T19:37:11.065Z,58.60
2019-04-27T19:39:41.943Z,58.70
2019-04-27T19:42:12.693Z,58.80
2019-04-27T19:44:43.694Z,58.70
2019-04-27T19:47:14.636Z,58.70
2019-04-27T19:49:46.513Z,58.80
2019-04-27T19:52:22.581Z,58.80
2019-04-27T19:54:53.026Z,59.00
2019-04-27T19:57:34.985Z,59.00
2019-04-27T19:59:58.827Z,58.90
2019-04-27T20:02:29.643Z,59.40
2019-04-27T20:05:01.764Z,59.30
2019-04-27T20:07:32.662Z,59.50
2019-04-27T20:10:04.145Z,59.40
2019-04-27T20:12:35.059Z,59.80
2019-04-27T20:15:07.813Z,59.50
2019-04-27T20:17:40.797Z,59.90
2019-04-27T20:20:11.528Z,59.70
2019-04-27T20:22:42.414Z,61.10
2019-04-27T20:25:13.421Z,59.70
2019-04-27T20:27:49.595Z,59.90
2019-04-27T20:30:16.926Z,60.20
2019-04-27T20:32:47.770Z,60.10
2019-04-27T20:35:18.722Z,60.40
2019-04-27T20:37:49.612Z,60.00
2019-04-27T20:40:21.798Z,60.20
2019-04-27T20:42:52.909Z,60.80
2019-04-27T20:45:23.759Z,61.00
2019-04-27T20:47:54.384Z,61.30
2019-04-27T20:50:25.263Z,61.50
2019-04-27T20:52:56.906Z,61.00
2019-04-27T20:55:27.798Z,61.20
2019-04-27T20:58:02.290Z,61.20
2019-04-27T21:00:32.010Z,61.50
2019-04-27T21:03:04.345Z,61.90
2019-04-27T21:05:36.580Z,61.90
2019-04-27T21:08:08.862Z,61.80
2019-04-27T21:10:40.810Z,62.50
2019-04-27T21:13:11.800Z,61.90
2019-04-27T21:15:44.040Z,62.80
2019-04-27T21:18:14.837Z,62.40
2019-04-27T21:20:45.534Z,61.70
2019-04-27T21:23:16.439Z,61.00
2019-04-27T21:25:47.292Z,60.80
2019-04-27T21:28:37.458Z,61.20
2019-04-27T21:31:08.305Z,61.00
2019-04-27T21:33:40.757Z,60.60
2019-04-27T21:36:11.724Z,60.20
2019-04-27T21:38:43.158Z,60.20
2019-04-27T21:41:13.908Z,60.70
2019-04-27T21:43:44.844Z,61.00
2019-04-27T21:46:15.696Z,61.50
2019-04-27T21:48:46.682Z,62.00
2019-04-27T21:51:17.647Z,62.20
2019-04-27T21:53:51.235Z,62.90
2019-04-27T21:56:22.384Z,63.00
2019-04-27T21:58:53.252Z,62.10
2019-04-27T22:01:31.811Z,61.50
2019-04-27T22:04:02.943Z,61.60
2019-04-27T22:06:33.904Z,61.50
2019-04-27T22:09:06.163Z,61.50
2019-04-27T22:11:37.118Z,61.30
2019-04-27T22:14:08.191Z,61.00
2019-04-27T22:16:39.065Z,61.10
2019-04-27T22:19:11.930Z,61.10
2019-04-27T22:21:43.610Z,60.90
2019-04-27T22:24:15.671Z,61.50
2019-04-27T22:26:46.625Z,61.50
